createdAt,value
2023-06-21T00:01:36.253Z,8.15
2023-06-21T00:04:02.873Z,7.15
2023-06-21T00:06:32.301Z,7.15
2023-06-21T00:08:59.037Z,6.35
2023-06-21T00:11:25.655Z,7.35
2023-06-21T00:13:56.102Z,5.53
2023-06-21T00:16:25.751Z,6.95
2023-06-21T00:18:52.383Z,3.83
2023-06-21T00:21:18.946Z,8.48
2023-06-21T00:23:45.460Z,8.68
2023-06-21T00:26:11.937Z,7.45
2023-06-21T00:28:38.607Z,8.48
2023-06-21T00:31:09.648Z,6.68
2023-06-21T00:33:36.339Z,7.57
2023-06-21T00:36:03.370Z,6.45
2023-06-21T00:38:35.736Z,8.52
2023-06-21T00:41:08.992Z,8.82
2023-06-21T00:43:35.826Z,5.82
2023-06-21T00:46:02.469Z,6.45
2023-06-21T00:48:30.192Z,7.53
2023-06-21T00:50:57.685Z,8.32
2023-06-21T00:53:27.399Z,7.45
2023-06-21T00:55:54.504Z,8.55
2023-06-21T00:58:21.562Z,6.93
2023-06-21T01:00:51.362Z,8.15
2023-06-21T01:03:23.029Z,5.78
2023-06-21T01:06:25.397Z,9.25
2023-06-21T01:09:22.510Z,7.93
2023-06-21T01:12:01.662Z,8.85
2023-06-21T01:14:35.390Z,8.60
2023-06-21T01:17:04.770Z,7.18
2023-06-21T01:19:47.997Z,5.15
2023-06-21T01:22:39.113Z,5.82
2023-06-21T01:25:08.051Z,11.10
2023-06-21T01:27:37.319Z,9.77
2023-06-21T01:30:06.673Z,8.43
2023-06-21T01:32:33.762Z,9.10
2023-06-21T01:37:28.752Z,8.60
2023-06-21T01:39:55.239Z,11.05
2023-06-21T01:42:21.821Z,9.38
2023-06-21T01:44:49.529Z,7.65
2023-06-21T01:47:16.319Z,10.43
2023-06-21T01:49:43.936Z,8.55
2023-06-21T01:52:11.607Z,9.13
2023-06-21T01:54:42.379Z,10.52
2023-06-21T01:57:12.053Z,8.68
2023-06-21T01:59:39.113Z,11.30
2023-06-21T02:02:06.771Z,7.95
2023-06-21T02:04:34.864Z,8.00
2023-06-21T02:07:03.508Z,9.60
2023-06-21T02:09:31.972Z,10.90
2023-06-21T02:11:59.635Z,9.52
2023-06-21T02:14:26.182Z,7.00
2023-06-21T02:16:52.700Z,8.15
2023-06-21T02:19:19.510Z,11.23
2023-06-21T02:21:46.124Z,12.00
2023-06-21T02:24:12.967Z,9.85
2023-06-21T02:26:39.616Z,10.00
2023-06-21T02:29:06.129Z,11.05
2023-06-21T02:31:34.183Z,7.97
2023-06-21T02:34:00.944Z,8.45
2023-06-21T02:36:27.506Z,9.38
2023-06-21T02:38:54.063Z,8.85
2023-06-21T02:41:20.643Z,12.15
2023-06-21T02:43:47.208Z,7.85
2023-06-21T02:46:13.747Z,9.73
2023-06-21T02:48:40.334Z,9.60
2023-06-21T02:51:06.825Z,9.13
2023-06-21T02:53:33.316Z,9.82
2023-06-21T02:56:00.174Z,7.43
2023-06-21T02:58:27.053Z,14.20
2023-06-21T03:00:53.705Z,14.32
2023-06-21T03:03:20.478Z,12.00
2023-06-21T03:05:47.167Z,14.48
2023-06-21T03:08:13.762Z,11.40
2023-06-21T03:10:40.455Z,12.50
2023-06-21T03:13:07.186Z,17.48
2023-06-21T03:15:33.862Z,12.32
2023-06-21T03:18:00.458Z,15.88
2023-06-21T03:20:27.777Z,11.45
2023-06-21T03:22:54.590Z,13.02
2023-06-21T03:25:21.124Z,15.18
2023-06-21T03:27:48.782Z,10.75
2023-06-21T03:30:15.762Z,15.73
2023-06-21T03:32:48.757Z,12.15
2023-06-21T03:35:19.571Z,12.32
2023-06-21T03:37:47.709Z,11.73
2023-06-21T03:40:15.386Z,15.02
2023-06-21T03:42:43.856Z,15.55
2023-06-21T03:45:11.253Z,13.32
2023-06-21T03:47:40.586Z,12.75
2023-06-21T03:50:11.078Z,11.68
2023-06-21T03:52:37.727Z,13.00
2023-06-21T03:55:05.727Z,13.43
2023-06-21T03:57:32.332Z,15.80
2023-06-21T03:59:58.864Z,12.80
2023-06-21T04:02:25.514Z,13.30
2023-06-21T04:04:52.702Z,12.02
2023-06-21T04:09:49.089Z,9.60
2023-06-21T04:14:42.241Z,14.18
2023-06-21T04:17:08.802Z,12.10
2023-06-21T04:19:35.338Z,12.68
2023-06-21T04:22:01.957Z,12.25
2023-06-21T04:24:28.517Z,16.70
2023-06-21T04:26:56.425Z,19.42
2023-06-21T04:29:23.276Z,11.65
2023-06-21T04:31:53.196Z,16.27
2023-06-21T04:34:20.578Z,17.35
2023-06-21T04:36:48.661Z,12.57
2023-06-21T04:39:17.244Z,14.07
2023-06-21T04:41:46.939Z,9.77
2023-06-21T04:44:18.188Z,12.35
2023-06-21T04:46:48.021Z,13.38
2023-06-21T04:49:16.990Z,12.77
2023-06-21T04:51:44.609Z,16.38
2023-06-21T04:54:11.317Z,10.80
2023-06-21T04:56:37.935Z,10.15
2023-06-21T04:59:04.708Z,14.95
2023-06-21T05:01:32.277Z,12.77
2023-06-21T05:03:58.870Z,13.23
2023-06-21T05:06:28.423Z,13.32
2023-06-21T05:08:55.171Z,15.90
2023-06-21T05:11:21.736Z,16.40
2023-06-21T05:13:48.485Z,15.45
2023-06-21T05:16:15.063Z,10.77
2023-06-21T05:18:41.785Z,14.55
2023-06-21T05:21:08.385Z,18.13
2023-06-21T05:23:35.024Z,15.82
2023-06-21T05:26:04.794Z,15.40
2023-06-21T05:28:31.851Z,11.38
2023-06-21T05:30:58.484Z,13.55
2023-06-21T05:33:25.076Z,12.95
2023-06-21T05:35:51.601Z,13.30
2023-06-21T05:38:18.121Z,12.93
2023-06-21T05:40:44.774Z,15.73
2023-06-21T05:43:11.413Z,10.88
2023-06-21T05:45:39.550Z,9.20
2023-06-21T05:48:06.483Z,12.15
2023-06-21T05:50:33.188Z,9.93
2023-06-21T05:53:00.247Z,12.98
2023-06-21T05:55:27.295Z,10.48
2023-06-21T05:57:53.836Z,14.68
2023-06-21T06:00:20.558Z,12.57
2023-06-21T06:02:47.277Z,8.55
2023-06-21T06:05:13.868Z,9.20
2023-06-21T06:07:40.497Z,13.02
2023-06-21T06:10:07.456Z,15.00
2023-06-21T06:12:34.777Z,8.32
2023-06-21T06:15:01.775Z,10.07
2023-06-21T06:17:28.749Z,15.98
2023-06-21T06:19:55.361Z,12.20
2023-06-21T06:22:22.811Z,11.57
2023-06-21T06:24:49.814Z,12.82
2023-06-21T06:27:16.421Z,8.43
2023-06-21T06:29:42.998Z,7.72
2023-06-21T06:32:09.622Z,13.88
2023-06-21T06:34:36.182Z,11.52
2023-06-21T06:37:13.625Z,12.93
2023-06-21T06:39:41.629Z,12.50
2023-06-21T06:42:09.510Z,11.27
2023-06-21T06:44:36.080Z,13.82
2023-06-21T06:47:02.796Z,8.15
2023-06-21T06:49:29.396Z,8.65
2023-06-21T06:51:56.063Z,10.40
2023-06-21T06:54:22.688Z,11.77
2023-06-21T06:56:49.362Z,12.43
2023-06-21T06:59:16.078Z,10.80
2023-06-21T07:01:42.593Z,9.57
2023-06-21T07:04:09.231Z,11.55
2023-06-21T07:06:36.029Z,12.25
2023-06-21T07:09:03.710Z,11.77
2023-06-21T07:11:32.054Z,8.75
2023-06-21T07:13:58.771Z,8.93
2023-06-21T07:16:25.550Z,8.00
2023-06-21T07:18:52.205Z,7.65
2023-06-21T07:21:21.892Z,7.57
2023-06-21T07:23:50.398Z,10.32
2023-06-21T07:26:17.076Z,10.27
2023-06-21T07:28:44.706Z,9.77
2023-06-21T07:31:11.539Z,11.60
2023-06-21T07:33:38.518Z,10.23
2023-06-21T07:36:06.287Z,10.65
2023-06-21T07:38:32.810Z,11.75
2023-06-21T07:40:59.481Z,5.82
2023-06-21T07:43:26.118Z,8.18
2023-06-21T07:45:59.879Z,8.23
2023-06-21T07:48:39.129Z,9.18
2023-06-21T07:51:05.662Z,7.72
2023-06-21T07:53:33.140Z,10.77
2023-06-21T07:56:16.091Z,5.68
2023-06-21T07:58:43.732Z,8.63
2023-06-21T08:01:10.713Z,7.57
2023-06-21T08:03:37.364Z,6.85
2023-06-21T08:06:04.049Z,9.77
2023-06-21T08:08:30.562Z,6.97
2023-06-21T08:10:57.418Z,5.75
2023-06-21T08:13:24.291Z,7.57
2023-06-21T08:15:52.308Z,4.90
2023-06-21T08:18:18.915Z,6.57
2023-06-21T08:20:45.522Z,6.68
2023-06-21T08:23:12.074Z,7.45
2023-06-21T08:25:38.599Z,7.55
2023-06-21T08:28:05.636Z,6.07
2023-06-21T08:30:32.295Z,4.95
2023-06-21T08:32:58.810Z,5.70
2023-06-21T08:35:25.463Z,5.22
2023-06-21T08:37:57.454Z,4.65
2023-06-21T08:40:32.772Z,5.72
2023-06-21T08:43:00.665Z,5.35
2023-06-21T08:45:27.828Z,6.28
2023-06-21T08:47:59.631Z,6.60
2023-06-21T08:50:26.427Z,5.18
2023-06-21T08:52:54.843Z,4.45
2023-06-21T08:55:24.732Z,9.32
2023-06-21T08:58:03.528Z,7.13
2023-06-21T09:00:35.167Z,7.15
2023-06-21T09:03:16.380Z,2.83
2023-06-21T09:05:53.470Z,6.93
2023-06-21T09:08:20.435Z,5.22
2023-06-21T09:10:51.629Z,5.85
2023-06-21T09:13:23.308Z,4.68
2023-06-21T09:15:51.484Z,5.45
2023-06-21T09:18:19.704Z,5.15
2023-06-21T09:20:48.689Z,6.22
2023-06-21T09:23:15.416Z,8.52
2023-06-21T09:25:43.376Z,4.15
2023-06-21T09:28:10.024Z,3.70
2023-06-21T09:30:39.044Z,5.82
2023-06-21T09:33:06.814Z,3.95
2023-06-21T09:35:34.066Z,4.93
2023-06-21T09:40:27.099Z,4.00
2023-06-21T09:42:54.568Z,5.00
2023-06-21T09:45:21.464Z,4.75
2023-06-21T09:47:48.292Z,4.35
2023-06-21T09:50:15.130Z,3.85
2023-06-21T09:52:44.457Z,5.82
2023-06-21T09:55:15.514Z,6.82
2023-06-21T09:57:42.266Z,5.32
2023-06-21T10:00:09.429Z,3.97
2023-06-21T10:02:42.687Z,3.05
2023-06-21T10:05:20.380Z,4.53
2023-06-21T10:07:47.849Z,4.43
2023-06-21T10:10:15.442Z,3.47
2023-06-21T10:12:56.384Z,2.88
2023-06-21T10:15:23.781Z,2.40
2023-06-21T10:17:59.910Z,3.03
2023-06-21T10:20:32.366Z,2.70
2023-06-21T10:23:02.434Z,5.00
2023-06-21T10:25:29.830Z,2.70
2023-06-21T10:27:59.722Z,7.20
2023-06-21T10:30:28.422Z,1.88
2023-06-21T10:32:58.969Z,3.47
2023-06-21T10:35:27.373Z,2.63
2023-06-21T10:38:05.011Z,3.28
2023-06-21T10:40:34.128Z,2.80
2023-06-21T10:43:00.903Z,2.17
2023-06-21T10:45:30.085Z,2.50
2023-06-21T10:47:57.757Z,3.80
2023-06-21T10:50:25.856Z,4.03
2023-06-21T10:52:55.124Z,3.92
2023-06-21T10:55:24.736Z,3.10
2023-06-21T10:57:56.717Z,3.90
2023-06-21T11:00:25.266Z,3.85
2023-06-21T11:02:53.200Z,2.33
2023-06-21T11:05:20.963Z,2.22
2023-06-21T11:07:58.460Z,2.70
2023-06-21T11:10:43.790Z,2.33
2023-06-21T11:13:12.089Z,3.83
2023-06-21T11:15:44.010Z,2.50
2023-06-21T11:18:11.862Z,3.47
2023-06-21T11:20:52.868Z,1.75
2023-06-21T11:23:25.028Z,2.42
2023-06-21T11:26:16.023Z,2.40
2023-06-21T11:28:48.226Z,2.47
2023-06-21T11:31:24.074Z,6.32
2023-06-21T11:33:57.507Z,3.20
2023-06-21T11:36:32.494Z,1.67
2023-06-21T11:39:20.602Z,2.42
2023-06-21T11:41:48.228Z,1.83
2023-06-21T11:44:20.935Z,4.93
2023-06-21T11:46:48.548Z,3.78
2023-06-21T11:49:15.205Z,2.22
2023-06-21T11:52:04.544Z,1.70
2023-06-21T11:54:33.234Z,2.10
2023-06-21T11:56:59.890Z,4.20
2023-06-21T11:59:27.530Z,2.25
2023-06-21T12:01:54.604Z,1.92
2023-06-21T12:04:28.387Z,2.28
2023-06-21T12:06:58.972Z,2.08
2023-06-21T12:09:25.833Z,2.55
2023-06-21T12:11:52.593Z,2.65
2023-06-21T12:14:20.655Z,1.20
2023-06-21T12:16:50.761Z,1.42
2023-06-21T12:19:17.443Z,1.40
2023-06-21T12:21:44.053Z,1.45
2023-06-21T12:24:10.631Z,2.10
2023-06-21T12:26:51.408Z,1.98
2023-06-21T12:29:18.053Z,1.70
2023-06-21T12:31:44.859Z,1.45
2023-06-21T12:34:16.774Z,1.70
2023-06-21T12:36:46.643Z,3.67
2023-06-21T12:39:15.579Z,1.50
2023-06-21T12:41:44.399Z,1.95
2023-06-21T12:44:21.799Z,1.00
2023-06-21T12:46:49.074Z,1.55
2023-06-21T12:49:15.972Z,1.13
2023-06-21T12:54:24.008Z,0.90
2023-06-21T12:56:54.180Z,1.15
2023-06-21T12:59:21.053Z,2.30
2023-06-21T13:01:47.714Z,0.93
2023-06-21T13:04:16.361Z,1.92
2023-06-21T13:06:43.614Z,2.00
2023-06-21T13:09:11.427Z,1.73
2023-06-21T13:11:39.266Z,1.40
2023-06-21T13:14:07.050Z,1.63
2023-06-21T13:16:33.957Z,1.35
2023-06-21T13:21:27.124Z,1.33
2023-06-21T13:23:55.367Z,0.88
2023-06-21T13:26:24.727Z,1.75
2023-06-21T13:28:51.954Z,2.72
2023-06-21T13:31:22.718Z,2.97
2023-06-21T13:33:50.746Z,1.42
2023-06-21T13:36:17.494Z,2.58
2023-06-21T13:38:44.409Z,1.15
2023-06-21T13:41:10.975Z,1.15
2023-06-21T13:43:37.584Z,1.02
2023-06-21T13:46:04.722Z,1.77
2023-06-21T13:48:31.502Z,1.60
2023-06-21T13:50:58.130Z,1.40
2023-06-21T13:53:24.761Z,1.75
2023-06-21T13:55:51.444Z,1.73
2023-06-21T13:58:18.278Z,1.92
2023-06-21T14:00:44.910Z,2.65
2023-06-21T14:03:11.617Z,3.53
2023-06-21T14:08:05.238Z,2.15
2023-06-21T14:10:33.262Z,3.78
2023-06-21T14:12:59.836Z,3.40
2023-06-21T14:15:26.629Z,5.72
2023-06-21T14:17:53.442Z,7.50
2023-06-21T14:20:20.068Z,4.85
2023-06-21T14:22:46.575Z,8.05
2023-06-21T14:25:13.230Z,7.32
2023-06-21T14:27:39.863Z,6.18
2023-06-21T14:30:07.035Z,4.45
2023-06-21T14:32:34.357Z,6.47
2023-06-21T14:35:01.213Z,4.70
2023-06-21T14:37:28.448Z,7.70
2023-06-21T14:39:55.992Z,7.45
2023-06-21T14:42:24.067Z,7.32
2023-06-21T14:44:51.231Z,5.60
2023-06-21T14:47:17.818Z,4.07
2023-06-21T14:49:44.772Z,5.18
2023-06-21T14:52:13.022Z,6.50
2023-06-21T14:54:40.156Z,6.57
2023-06-21T14:59:33.163Z,5.97
2023-06-21T15:01:59.782Z,6.22
2023-06-21T15:04:26.388Z,4.82
2023-06-21T15:06:52.962Z,5.05
2023-06-21T15:09:19.517Z,6.25
2023-06-21T15:11:46.102Z,5.93
2023-06-21T15:14:12.644Z,10.52
2023-06-21T15:16:46.900Z,8.32
2023-06-21T15:19:13.790Z,7.63
2023-06-21T15:21:40.641Z,6.75
2023-06-21T15:24:07.869Z,7.45
2023-06-21T15:26:35.303Z,4.43
2023-06-21T15:29:02.724Z,7.70
2023-06-21T15:31:29.380Z,6.18
2023-06-21T15:33:55.974Z,8.63
2023-06-21T15:36:22.617Z,6.90
2023-06-21T15:38:49.161Z,5.95
2023-06-21T15:41:16.210Z,5.88
2023-06-21T15:46:09.673Z,10.13
2023-06-21T15:48:36.338Z,4.97
2023-06-21T15:51:02.945Z,6.43
2023-06-21T15:53:29.496Z,5.68
2023-06-21T15:55:56.041Z,6.25
2023-06-21T15:58:22.569Z,4.90
2023-06-21T16:00:49.117Z,6.72
2023-06-21T16:03:15.847Z,7.82
2023-06-21T16:05:42.468Z,4.82
2023-06-21T16:08:09.078Z,5.50
2023-06-21T16:10:35.621Z,5.38
2023-06-21T16:13:04.349Z,5.50
2023-06-21T16:15:31.316Z,5.10
2023-06-21T16:17:58.312Z,4.22
2023-06-21T16:20:24.943Z,4.85
2023-06-21T16:22:51.460Z,5.68
2023-06-21T16:25:18.085Z,5.95
2023-06-21T16:27:44.669Z,4.50
2023-06-21T16:30:13.595Z,4.72
2023-06-21T16:32:40.167Z,4.43
2023-06-21T16:35:07.162Z,4.75
2023-06-21T16:40:00.380Z,3.88
2023-06-21T16:42:30.284Z,4.55
2023-06-21T16:44:57.195Z,2.80
2023-06-21T16:47:24.458Z,5.88
2023-06-21T16:49:51.089Z,3.30
2023-06-21T16:52:17.714Z,3.83
2023-06-21T16:54:44.418Z,4.53
2023-06-21T16:57:17.702Z,5.72
2023-06-21T16:59:45.439Z,4.60
2023-06-21T17:04:38.618Z,4.35
2023-06-21T17:09:32.080Z,5.65
2023-06-21T17:11:58.807Z,3.97
2023-06-21T17:14:25.385Z,3.47
2023-06-21T17:16:52.041Z,3.45
2023-06-21T17:19:19.283Z,3.10
2023-06-21T17:21:45.826Z,3.10
2023-06-21T17:24:12.323Z,2.53
2023-06-21T17:26:38.868Z,3.38
2023-06-21T17:29:05.466Z,4.60
2023-06-21T17:31:32.206Z,2.63
2023-06-21T17:33:58.866Z,2.22
2023-06-21T17:36:25.479Z,3.17
2023-06-21T17:38:52.080Z,4.80
2023-06-21T17:41:18.569Z,4.10
2023-06-21T17:43:45.120Z,3.80
2023-06-21T17:46:11.632Z,2.55
2023-06-21T17:48:39.608Z,3.03
2023-06-21T17:51:06.416Z,4.15
2023-06-21T17:53:33.005Z,2.97
2023-06-21T17:55:59.678Z,2.42
2023-06-21T17:58:26.282Z,2.53
2023-06-21T18:00:53.239Z,3.03
2023-06-21T18:03:20.228Z,3.10
2023-06-21T18:05:46.950Z,3.60
2023-06-21T18:08:13.488Z,3.40
2023-06-21T18:10:40.050Z,2.80
2023-06-21T18:13:07.052Z,3.00
2023-06-21T18:18:00.358Z,2.63
2023-06-21T18:20:27.205Z,1.60
2023-06-21T18:22:55.789Z,1.95
2023-06-21T18:25:22.445Z,1.50
2023-06-21T18:27:49.895Z,1.90
2023-06-21T18:30:16.630Z,3.08
2023-06-21T18:32:43.306Z,2.53
2023-06-21T18:35:10.637Z,1.80
2023-06-21T18:37:44.090Z,2.17
2023-06-21T18:40:11.018Z,3.15
2023-06-21T18:42:38.933Z,1.50
2023-06-21T18:45:07.062Z,2.03
2023-06-21T18:47:33.747Z,2.30
2023-06-21T18:50:00.348Z,1.77
2023-06-21T18:52:27.130Z,2.22
2023-06-21T18:54:54.245Z,1.85
2023-06-21T18:59:48.873Z,1.77
2023-06-21T19:02:15.531Z,3.35
2023-06-21T19:04:44.334Z,1.38
2023-06-21T19:07:11.276Z,1.80
2023-06-21T19:09:37.844Z,2.25
2023-06-21T19:12:04.631Z,1.90
2023-06-21T19:14:31.217Z,3.45
2023-06-21T19:16:57.792Z,1.48
2023-06-21T19:19:24.283Z,1.92
2023-06-21T19:21:50.852Z,1.63
2023-06-21T19:24:17.413Z,1.20
2023-06-21T19:26:45.902Z,2.13
2023-06-21T19:29:12.536Z,1.40
2023-06-21T19:31:39.225Z,2.28
2023-06-21T19:34:09.124Z,2.15
2023-06-21T19:36:35.801Z,1.50
2023-06-21T19:39:02.361Z,1.90
2023-06-21T19:41:28.928Z,1.15
2023-06-21T19:43:55.535Z,1.30
2023-06-21T19:46:22.588Z,5.75
2023-06-21T19:51:15.863Z,50.35
2023-06-21T19:53:42.368Z,139.85
2023-06-21T19:56:09.214Z,133.32
2023-06-21T19:58:35.797Z,128.90
2023-06-21T20:01:03.520Z,124.28
2023-06-21T20:03:30.221Z,109.00
2023-06-21T20:05:56.862Z,106.88
2023-06-21T20:08:23.934Z,136.98
2023-06-21T20:10:50.561Z,130.40
2023-06-21T20:13:17.112Z,110.32
2023-06-21T20:15:44.808Z,76.68
2023-06-21T20:18:11.431Z,122.15
2023-06-21T20:20:38.219Z,58.03
2023-06-21T20:23:04.934Z,60.67
2023-06-21T20:25:31.711Z,96.25
2023-06-21T20:27:58.229Z,67.53
2023-06-21T20:30:25.183Z,54.47
2023-06-21T20:32:51.802Z,93.82
2023-06-21T20:35:18.464Z,57.78
2023-06-21T20:37:45.020Z,94.55
2023-06-21T20:40:15.604Z,53.03
2023-06-21T20:42:42.620Z,53.63
2023-06-21T20:45:22.262Z,76.00
2023-06-21T20:47:52.036Z,48.88
2023-06-21T20:50:18.712Z,47.80
2023-06-21T20:52:45.630Z,41.60
2023-06-21T20:55:12.288Z,39.70
2023-06-21T20:57:38.852Z,51.45
2023-06-21T21:00:11.950Z,22.90
2023-06-21T21:02:39.009Z,12.27
2023-06-21T21:07:32.166Z,18.52
2023-06-21T21:09:58.734Z,27.27
2023-06-21T21:12:27.363Z,9.70
2023-06-21T21:14:54.774Z,18.55
2023-06-21T21:17:21.797Z,13.00
2023-06-21T21:19:48.368Z,6.68
2023-06-21T21:22:15.318Z,67.78
2023-06-21T21:24:41.877Z,22.63
2023-06-21T21:27:08.417Z,21.88
2023-06-21T21:29:34.947Z,34.90
2023-06-21T21:32:03.391Z,14.35
2023-06-21T21:34:30.672Z,16.65
2023-06-21T21:39:26.877Z,9.88
2023-06-21T21:41:53.603Z,14.15
2023-06-21T21:44:20.920Z,5.97
2023-06-21T21:46:48.542Z,12.45
2023-06-21T21:49:16.263Z,21.50
2023-06-21T21:51:43.034Z,13.80
2023-06-21T21:54:09.740Z,28.05
2023-06-21T21:56:36.344Z,29.33
2023-06-21T21:59:02.994Z,24.15
2023-06-21T22:01:29.579Z,10.95
2023-06-21T22:03:56.464Z,8.05
2023-06-21T22:06:23.195Z,18.85
2023-06-21T22:08:49.764Z,21.23
2023-06-21T22:11:16.943Z,11.70
2023-06-21T22:16:13.509Z,10.35
2023-06-21T22:18:41.216Z,10.75
2023-06-21T22:21:10.231Z,5.53
2023-06-21T22:23:36.834Z,4.15
2023-06-21T22:26:05.373Z,4.55
2023-06-21T22:28:32.349Z,4.88
2023-06-21T22:30:59.104Z,6.50
2023-06-21T22:33:25.736Z,5.38
2023-06-21T22:35:52.604Z,4.00
2023-06-21T22:38:19.238Z,7.32
2023-06-21T22:40:46.042Z,5.45
2023-06-21T22:43:12.615Z,5.28
2023-06-21T22:45:42.931Z,8.07
2023-06-21T22:48:09.801Z,5.90
2023-06-21T22:50:36.807Z,5.32
2023-06-21T22:53:05.121Z,5.30
2023-06-21T22:55:32.025Z,3.10
2023-06-21T22:58:00.256Z,3.03
2023-06-21T23:00:27.091Z,4.43
2023-06-21T23:02:53.965Z,13.38
2023-06-21T23:05:20.862Z,3.22
2023-06-21T23:07:47.570Z,7.70
2023-06-21T23:10:14.119Z,4.63
2023-06-21T23:12:45.771Z,5.82
2023-06-21T23:15:15.374Z,9.43
2023-06-21T23:17:43.558Z,4.57
2023-06-21T23:20:11.955Z,7.38
2023-06-21T23:22:39.964Z,7.28
2023-06-21T23:25:13.519Z,6.03
2023-06-21T23:27:43.105Z,3.72
2023-06-21T23:30:20.615Z,6.88
2023-06-21T23:32:58.522Z,5.03
2023-06-21T23:35:25.150Z,8.93
2023-06-21T23:37:55.349Z,7.82
2023-06-21T23:40:22.078Z,5.45
2023-06-21T23:42:52.749Z,7.22
2023-06-21T23:45:19.877Z,3.88
2023-06-21T23:47:46.469Z,5.75
2023-06-21T23:50:13.214Z,7.18
2023-06-21T23:52:39.853Z,7.13
2023-06-21T23:55:07.249Z,3.90
2023-06-21T23:57:34.098Z,6.75
